Friday, April 18, 2014
03:00 UTC
  |  Log In   |  Register Free
Airport Search:

Tyler Pounds Regional Airport
(KTYR)

FAA data valid effective April 3, 2014 until May 29, 2014 (unless otherwise noted).

 
 
 
 
 
 
 
 
 
 
 
 
 
 

Current Aviation Weather for Tyler Pounds Regional Airport (KTYR)

The most recent METAR observation for KTYR was updated at: 0153 UTC
METAR Summary (Translated METAR)
KTYR
180153Z 09006KT 10SM OVC080 18/08 A3015 RMK AO2 SLP205 T01830083
KJDD
(23.8 nm NW from KTYR)
180155Z AUTO 00000KT 10SM OVC085 17/10 A3017 RMK AO2
TAF Summary (Translated TAF)
KTYR
171722Z 1718/1818 14010KT P6SM SCT050 OVC090 FM180000 VRB04KT P6SM BKN040 BKN250 FM181300 03006KT P6SM SKC
  Airport Weather Conditions for KTYR

 Current Weather at TYR
65° F
Overcast
East winds at 6.9 mph
TYR NOAA Radar

Pressure: 30.15 in
Humidity: 52%
Wind: East at 6.9 MPH (6 KT)
Dew Point: 46.9°F
Visibility: 10.00 mi


Airport Weather Forecast for KTYR

Translated METAR and TAF for KTYR
Translated METAR for KTYR (0300 UTC 18 April 2014)
found at http://aviationweather.gov/adds/metars/
 
METAR text: KTYR 180253Z 06005KT 10SM OVC085 18/08 A3017 RMK AO2 SLP213 T01780083 53015
Conditions at: KTYR (TYLER , TX, US) observed 0253 UTC 18 April 2014
Temperature: 17.8°C (64°F)
Dewpoint: 8.3°C (47°F) [RH = 54%]
Pressure (altimeter): 30.17 inches Hg (1021.8 mb)
[Sea-level pressure: 1021.3 mb]
Winds: from the ENE (60 degrees) at 6 MPH (5 knots; 2.6 m/s)
Visibility: 10 or more miles (16+ km)
Ceiling: 8500 feet AGL
Clouds: overcast cloud deck at 8500 feet AGL
Weather: no significant weather observed at this time
Translated TAF for KTYR
Forecast for: KTYR (TYLER , TX, US)
TAF Text: KTYR 172339Z 1800/1824 05006KT P6SM BKN045
Forecast period: 0000 to 0500 UTC 18 April 2014
Forecast type: FROM: standard forecast or significant change
Winds: from the NE (50 degrees) at 7 MPH (6 knots; 3.1 m/s)
Visibility: 6 or more miles (10+ km)
Ceiling: 4500 feet AGL
Clouds: broken clouds at 4500 feet AGL
Weather: no significant weather forecast for this period
TAF Text: FM180500 04003KT P6SM BKN045
Forecast period: 0500 to 1200 UTC 18 April 2014
Forecast type: FROM: standard forecast or significant change
Winds: from the NE (40 degrees) at 3 MPH (3 knots; 1.6 m/s)
Visibility: 6 or more miles (10+ km)
Ceiling: 4500 feet AGL
Clouds: broken clouds at 4500 feet AGL
Weather: no significant weather forecast for this period
TAF Text: FM181200 03004KT P6SM SCT060 BKN070
Forecast period: 1200 to 1400 UTC 18 April 2014
Forecast type: FROM: standard forecast or significant change
Winds: from the NNE (30 degrees) at 5 MPH (4 knots; 2.1 m/s)
Visibility: 6 or more miles (10+ km)
Ceiling: 7000 feet AGL
Clouds: scattered clouds at 6000 feet AGL
broken clouds at 7000 feet AGL
Weather: no significant weather forecast for this period
TAF Text: FM181400 03006KT P6SM FEW060
Forecast period: 1400 to 1800 UTC 18 April 2014
Forecast type: FROM: standard forecast or significant change
Winds: from the NNE (30 degrees) at 7 MPH (6 knots; 3.1 m/s)
Visibility: 6 or more miles (10+ km)
Clouds: few clouds at 6000 feet AGL
Weather: no significant weather forecast for this period
TAF Text: FM181800 04007KT P6SM SCT040
Forecast period: 1800 UTC 18 April 2014 to 0000 UTC 19 April 2014
Forecast type: FROM: standard forecast or significant change
Winds: from the NE (40 degrees) at 8 MPH (7 knots; 3.6 m/s)
Visibility: 6 or more miles (10+ km)
Clouds: scattered clouds at 4000 feet AGL
Weather: no significant weather forecast for this period

Find All Airport Services Find A Hotel Find A Rental Car Find A Golf Course Find A Restaurant $100 Hamburger



FBO's on the Field
FBO Company Facility Photos Services Transportation Aviation Fuel Prices: Prices include tax
Catering Weather Repair Courtesy Rental Type 100LL JetA JetA+ MOGAS 8087
 
Jet Center of Tyler

Currently rated 5 by 1 person
FS:Phillips66
Last Updated: Apr-15
Login to update fuel prices
SS:
Contact Jet Center of TylerMore FBO Information
 
Johnson Aviation, Inc

Currently rated 3.2 by 1 person
FS:Avfuel
Last Updated: Mar-28
Login to update fuel prices
SS:
Contact Johnson Aviation, IncMore FBO Information
 
Add another FBO Facility Photos Catering Weather Repair Courtesy Rental Type 100LL JetA JetA+ MOGAS 8087
Services Transportation Aviation Fuel Prices: Prices include tax


GlobalAir.com Airport Resource Center model-print
model-print
model-print
model-print